sensor_id;sensor_type;location;lat;lon;timestamp;pressure;altitude;pressure_sealevel;temperature;humidity
62237;BME280;69163;48.778;2.308;2023-07-20T00:00:26;100957.77;;;23.85;34.78
62237;BME280;69163;48.778;2.308;2023-07-20T00:02:52;100957.97;;;23.84;34.75
62237;BME280;69163;48.778;2.308;2023-07-20T00:05:17;100961.48;;;23.89;34.68
62237;BME280;69163;48.778;2.308;2023-07-20T00:07:43;100961.53;;;23.36;34.71
62237;BME280;69163;48.778;2.308;2023-07-20T00:10:08;100962.49;;;23.29;34.77
62237;BME280;69163;48.778;2.308;2023-07-20T00:12:32;100961.09;;;23.29;34.80
62237;BME280;69163;48.778;2.308;2023-07-20T00:14:58;100959.91;;;23.78;34.70
62237;BME280;69163;48.778;2.308;2023-07-20T00:17:23;100960.79;;;23.74;34.75
62237;BME280;69163;48.778;2.308;2023-07-20T00:19:48;100961.72;;;23.73;34.74
62237;BME280;69163;48.778;2.308;2023-07-20T00:22:13;100961.17;;;23.65;34.87
62237;BME280;69163;48.778;2.308;2023-07-20T00:24:39;100962.28;;;24.14;34.83
62237;BME280;69163;48.778;2.308;2023-07-20T00:27:04;100958.20;;;23.86;34.81
62237;BME280;69163;48.778;2.308;2023-07-20T00:29:29;100955.56;;;23.89;34.84
62237;BME280;69163;48.778;2.308;2023-07-20T00:31:54;100958.63;;;23.88;34.79
62237;BME280;69163;48.778;2.308;2023-07-20T00:34:19;100957.66;;;23.83;34.85
62237;BME280;69163;48.778;2.308;2023-07-20T00:36:45;100956.99;;;23.55;34.88
62237;BME280;69163;48.778;2.308;2023-07-20T00:39:10;100956.34;;;23.72;34.95
62237;BME280;69163;48.778;2.308;2023-07-20T00:41:36;100956.50;;;22.95;35.01
62237;BME280;69163;48.778;2.308;2023-07-20T00:44:00;100957.06;;;22.95;35.01
62237;BME280;69163;48.778;2.308;2023-07-20T00:46:25;100957.94;;;23.46;35.00
62237;BME280;69163;48.778;2.308;2023-07-20T00:48:51;100958.70;;;23.19;34.98
62237;BME280;69163;48.778;2.308;2023-07-20T00:51:16;100959.88;;;23.40;35.04
62237;BME280;69163;48.778;2.308;2023-07-20T00:53:41;100955.70;;;23.37;35.10
62237;BME280;69163;48.778;2.308;2023-07-20T00:56:06;100952.92;;;23.62;35.04
62237;BME280;69163;48.778;2.308;2023-07-20T00:58:31;100951.53;;;23.59;35.02
62237;BME280;69163;48.778;2.308;2023-07-20T01:00:57;100952.29;;;23.61;35.04
62237;BME280;69163;48.778;2.308;2023-07-20T01:03:22;100952.39;;;23.61;35.04
62237;BME280;69163;48.778;2.308;2023-07-20T01:05:51;100953.00;;;23.37;35.06
62237;BME280;69163;48.778;2.308;2023-07-20T01:08:17;100953.96;;;23.79;35.11
62237;BME280;69163;48.778;2.308;2023-07-20T01:10:41;100950.75;;;23.79;35.10
62237;BME280;69163;48.778;2.308;2023-07-20T01:13:05;100948.72;;;23.25;35.21
62237;BME280;69163;48.778;2.308;2023-07-20T01:15:29;100947.29;;;23.22;35.20
62237;BME280;69163;48.778;2.308;2023-07-20T01:17:53;100943.22;;;22.74;35.20
62237;BME280;69163;48.778;2.308;2023-07-20T01:20:20;100944.79;;;23.22;35.19
62237;BME280;69163;48.778;2.308;2023-07-20T01:25:21;100941.40;;;23.18;35.26
62237;BME280;69163;48.778;2.308;2023-07-20T01:27:49;100942.76;;;23.42;35.27
62237;BME280;69163;48.778;2.308;2023-07-20T01:30:14;100943.31;;;23.40;35.29
62237;BME280;69163;48.778;2.308;2023-07-20T01:32:25;100941.23;;;23.43;35.25
62237;BME280;69163;48.778;2.308;2023-07-20T01:34:52;100944.09;;;23.15;35.28
62237;BME280;69163;48.778;2.308;2023-07-20T01:37:16;100941.62;;;23.41;35.22
62237;BME280;69163;48.778;2.308;2023-07-20T01:39:41;100941.05;;;23.38;35.25
62237;BME280;69163;48.778;2.308;2023-07-20T01:42:06;100939.00;;;23.38;35.25
62237;BME280;69163;48.778;2.308;2023-07-20T01:44:31;100940.88;;;23.61;35.27
62237;BME280;69163;48.778;2.308;2023-07-20T01:46:56;100936.63;;;23.36;35.29
62237;BME280;69163;48.778;2.308;2023-07-20T01:49:22;100934.84;;;23.10;35.29
62237;BME280;69163;48.778;2.308;2023-07-20T01:51:46;100932.80;;;22.86;35.28
62237;BME280;69163;48.778;2.308;2023-07-20T01:54:12;100927.31;;;23.07;35.33
62237;BME280;69163;48.778;2.308;2023-07-20T01:56:37;100921.67;;;23.05;35.34
62237;BME280;69163;48.778;2.308;2023-07-20T01:59:02;100922.35;;;23.27;35.36
62237;BME280;69163;48.778;2.308;2023-07-20T02:01:27;100921.27;;;23.46;35.39
62237;BME280;69163;48.778;2.308;2023-07-20T02:03:52;100922.31;;;23.21;35.38
62237;BME280;69163;48.778;2.308;2023-07-20T02:06:18;100922.69;;;23.19;35.39
62237;BME280;69163;48.778;2.308;2023-07-20T02:08:43;100919.56;;;22.98;35.36
62237;BME280;69163;48.778;2.308;2023-07-20T02:11:08;100914.96;;;23.20;35.36
62237;BME280;69163;48.778;2.308;2023-07-20T02:13:33;100915.66;;;23.46;35.31
62237;BME280;69163;48.778;2.308;2023-07-20T02:15:59;100914.35;;;23.16;35.37
62237;BME280;69163;48.778;2.308;2023-07-20T02:18:24;100912.08;;;23.38;35.42
62237;BME280;69163;48.778;2.308;2023-07-20T02:20:53;100912.40;;;22.61;35.45
62237;BME280;69163;48.778;2.308;2023-07-20T02:23:14;100913.76;;;22.39;35.44
62237;BME280;69163;48.778;2.308;2023-07-20T02:25:41;100911.90;;;22.92;35.35
62237;BME280;69163;48.778;2.308;2023-07-20T02:28:06;100909.31;;;23.12;35.37
62237;BME280;69163;48.778;2.308;2023-07-20T02:30:30;100910.45;;;23.16;35.32
62237;BME280;69163;48.778;2.308;2023-07-20T02:32:55;100911.81;;;23.15;35.31
62237;BME280;69163;48.778;2.308;2023-07-20T02:35:20;100911.00;;;23.11;35.37
62237;BME280;69163;48.778;2.308;2023-07-20T02:37:46;100913.81;;;23.08;35.42
62237;BME280;69163;48.778;2.308;2023-07-20T02:40:11;100914.36;;;23.32;35.42
62237;BME280;69163;48.778;2.308;2023-07-20T02:42:36;100913.51;;;23.27;35.48
62237;BME280;69163;48.778;2.308;2023-07-20T02:45:02;100914.37;;;23.05;35.48
62237;BME280;69163;48.778;2.308;2023-07-20T02:47:26;100916.98;;;23.24;35.53
62237;BME280;69163;48.778;2.308;2023-07-20T02:49:52;100920.26;;;23.21;35.59
62237;BME280;69163;48.778;2.308;2023-07-20T02:52:17;100919.01;;;22.94;35.61
62237;BME280;69163;48.778;2.308;2023-07-20T02:54:43;100917.82;;;22.28;35.52
62237;BME280;69163;48.778;2.308;2023-07-20T02:57:07;100914.57;;;22.77;35.52
62237;BME280;69163;48.778;2.308;2023-07-20T02:59:32;100910.83;;;23.24;35.49
62237;BME280;69163;48.778;2.308;2023-07-20T03:01:58;100911.18;;;23.01;35.47
62237;BME280;69163;48.778;2.308;2023-07-20T03:04:23;100910.00;;;23.26;35.44
62237;BME280;69163;48.778;2.308;2023-07-20T03:06:48;100910.65;;;22.99;35.49
62237;BME280;69163;48.778;2.308;2023-07-20T03:09:13;100911.77;;;23.01;35.48
62237;BME280;69163;48.778;2.308;2023-07-20T03:11:39;100912.20;;;23.00;35.48
62237;BME280;69163;48.778;2.308;2023-07-20T03:14:04;100910.72;;;23.25;35.44
62237;BME280;69163;48.778;2.308;2023-07-20T03:16:29;100909.42;;;23.24;35.45
62237;BME280;69163;48.778;2.308;2023-07-20T03:18:54;100911.35;;;23.20;35.49
62237;BME280;69163;48.778;2.308;2023-07-20T03:21:20;100917.57;;;23.14;35.58
62237;BME280;69163;48.778;2.308;2023-07-20T03:23:45;100921.31;;;22.87;35.59
62237;BME280;69163;48.778;2.308;2023-07-20T03:26:10;100921.12;;;22.60;35.64
62237;BME280;69163;48.778;2.308;2023-07-20T03:28:35;100921.06;;;22.61;35.64
62237;BME280;69163;48.778;2.308;2023-07-20T03:31:00;100917.78;;;22.65;35.63
62237;BME280;69163;48.778;2.308;2023-07-20T03:33:27;100917.68;;;22.61;35.68
62237;BME280;69163;48.778;2.308;2023-07-20T03:35:51;100915.69;;;23.07;35.66
62237;BME280;69163;48.778;2.308;2023-07-20T03:38:16;100913.71;;;23.05;35.71
62237;BME280;69163;48.778;2.308;2023-07-20T03:40:50;100913.40;;;22.58;35.69
62237;BME280;69163;48.778;2.308;2023-07-20T03:43:06;100918.01;;;22.79;35.71
62237;BME280;69163;48.778;2.308;2023-07-20T03:45:32;100915.36;;;22.77;35.70
62237;BME280;69163;48.778;2.308;2023-07-20T03:47:57;100917.09;;;22.97;35.73
62237;BME280;69163;48.778;2.308;2023-07-20T03:50:22;100918.63;;;22.94;35.79
62237;BME280;69163;48.778;2.308;2023-07-20T03:52:47;100916.86;;;22.69;35.77
62237;BME280;69163;48.778;2.308;2023-07-20T03:55:13;100915.85;;;22.88;35.83
62237;BME280;69163;48.778;2.308;2023-07-20T03:57:39;100914.35;;;22.92;35.78
62237;BME280;69163;48.778;2.308;2023-07-20T04:00:05;100911.92;;;22.42;35.80
62237;BME280;69163;48.778;2.308;2023-07-20T04:02:28;100911.33;;;22.43;35.74
62237;BME280;69163;48.778;2.308;2023-07-20T04:04:53;100911.94;;;22.43;35.78
62237;BME280;69163;48.778;2.308;2023-07-20T04:07:19;100905.06;;;22.85;35.83
62237;BME280;69163;48.778;2.308;2023-07-20T04:09:44;100905.06;;;22.56;35.89
62237;BME280;69163;48.778;2.308;2023-07-20T04:12:09;100906.59;;;22.79;35.90
62237;BME280;69163;48.778;2.308;2023-07-20T04:14:34;100900.24;;;22.78;35.93
62237;BME280;69163;48.778;2.308;2023-07-20T04:17:00;100898.22;;;22.84;35.83
62237;BME280;69163;48.778;2.308;2023-07-20T04:19:25;100899.78;;;22.80;35.87
62237;BME280;69163;48.778;2.308;2023-07-20T04:21:51;100898.29;;;22.79;35.88
62237;BME280;69163;48.778;2.308;2023-07-20T04:24:16;100898.18;;;22.77;35.90
62237;BME280;69163;48.778;2.308;2023-07-20T04:26:41;100897.85;;;22.75;35.91
62237;BME280;69163;48.778;2.308;2023-07-20T04:29:06;100898.50;;;22.75;35.93
62237;BME280;69163;48.778;2.308;2023-07-20T04:31:32;100895.27;;;22.48;35.96
62237;BME280;69163;48.778;2.308;2023-07-20T04:33:57;100897.14;;;22.24;35.96
62237;BME280;69163;48.778;2.308;2023-07-20T04:36:22;100898.89;;;22.25;35.96
62237;BME280;69163;48.778;2.308;2023-07-20T04:38:47;100899.64;;;22.73;35.96
62237;BME280;69163;48.778;2.308;2023-07-20T04:41:12;100901.36;;;22.74;35.94
62237;BME280;69163;48.778;2.308;2023-07-20T04:43:41;100900.93;;;22.75;35.94
62237;BME280;69163;48.778;2.308;2023-07-20T04:46:03;100898.59;;;22.72;35.99
62237;BME280;69163;48.778;2.308;2023-07-20T04:48:28;100897.01;;;22.71;36.00
62237;BME280;69163;48.778;2.308;2023-07-20T04:50:53;100901.35;;;22.72;36.00
62237;BME280;69163;48.778;2.308;2023-07-20T04:53:18;100902.46;;;22.70;36.06
62237;BME280;69163;48.778;2.308;2023-07-20T04:55:49;100905.51;;;22.65;36.13
62237;BME280;69163;48.778;2.308;2023-07-20T04:58:09;100902.96;;;22.69;36.11
62237;BME280;69163;48.778;2.308;2023-07-20T05:00:35;100900.79;;;22.72;36.11
62237;BME280;69163;48.778;2.308;2023-07-20T05:03:00;100900.19;;;22.69;36.17
62237;BME280;69163;48.778;2.308;2023-07-20T05:05:25;100902.32;;;22.49;36.16
62237;BME280;69163;48.778;2.308;2023-07-20T05:07:50;100903.74;;;22.25;36.17
62237;BME280;69163;48.778;2.308;2023-07-20T05:10:15;100905.00;;;22.22;36.24
62237;BME280;69163;48.778;2.308;2023-07-20T05:12:41;100907.06;;;22.47;36.29
62237;BME280;69163;48.778;2.308;2023-07-20T05:15:07;100906.18;;;22.70;36.31
62237;BME280;69163;48.778;2.308;2023-07-20T05:17:31;100907.91;;;22.71;36.35
62237;BME280;69163;48.778;2.308;2023-07-20T05:19:56;100908.46;;;22.73;36.37
62237;BME280;69163;48.778;2.308;2023-07-20T05:22:22;100911.22;;;22.70;36.40
62237;BME280;69163;48.778;2.308;2023-07-20T05:24:47;100913.38;;;22.73;36.40
62237;BME280;69163;48.778;2.308;2023-07-20T05:27:12;100917.74;;;22.78;36.38
62237;BME280;69163;48.778;2.308;2023-07-20T05:29:37;100916.50;;;22.76;36.41
62237;BME280;69163;48.778;2.308;2023-07-20T05:32:03;100914.83;;;22.77;36.43
62237;BME280;69163;48.778;2.308;2023-07-20T05:34:29;100913.89;;;22.76;36.49
62237;BME280;69163;48.778;2.308;2023-07-20T05:36:54;100914.24;;;22.26;36.52
62237;BME280;69163;48.778;2.308;2023-07-20T05:39:19;100915.79;;;22.29;36.50
62237;BME280;69163;48.778;2.308;2023-07-20T05:41:44;100917.54;;;22.34;36.52
62237;BME280;69163;48.778;2.308;2023-07-20T05:44:09;100914.08;;;22.60;36.44
62237;BME280;69163;48.778;2.308;2023-07-20T05:46:34;100915.37;;;22.61;36.47
62237;BME280;69163;48.778;2.308;2023-07-20T05:48:59;100913.27;;;22.82;36.55
62237;BME280;69163;48.778;2.308;2023-07-20T05:51:24;100911.69;;;22.59;36.58
62237;BME280;69163;48.778;2.308;2023-07-20T05:53:50;100906.40;;;22.87;36.57
62237;BME280;69163;48.778;2.308;2023-07-20T05:56:15;100904.19;;;22.84;36.60
62237;BME280;69163;48.778;2.308;2023-07-20T05:58:41;100904.05;;;23.12;36.55
62237;BME280;69163;48.778;2.308;2023-07-20T06:01:05;100906.44;;;22.91;36.56
62237;BME280;69163;48.778;2.308;2023-07-20T06:03:31;100906.05;;;22.98;36.45
62237;BME280;69163;48.778;2.308;2023-07-20T06:05:59;100903.48;;;23.02;36.40
62237;BME280;69163;48.778;2.308;2023-07-20T06:08:22;100902.25;;;22.96;36.42
62237;BME280;69163;48.778;2.308;2023-07-20T06:10:50;100904.07;;;22.56;36.37
62237;BME280;69163;48.778;2.308;2023-07-20T06:13:12;100908.29;;;22.59;36.37
62237;BME280;69163;48.778;2.308;2023-07-20T06:15:37;100909.56;;;22.81;36.37
62237;BME280;69163;48.778;2.308;2023-07-20T06:18:02;100910.57;;;23.05;36.34
62237;BME280;69163;48.778;2.308;2023-07-20T06:20:27;100911.29;;;23.10;36.24
62237;BME280;69163;48.778;2.308;2023-07-20T06:22:53;100910.12;;;22.86;36.34
62237;BME280;69163;48.778;2.308;2023-07-20T06:25:18;100907.49;;;23.09;36.34
62237;BME280;69163;48.778;2.308;2023-07-20T06:27:43;100910.17;;;23.18;36.20
62237;BME280;69163;48.778;2.308;2023-07-20T06:30:09;100906.63;;;22.92;36.20
62237;BME280;69163;48.778;2.308;2023-07-20T06:32:33;100905.18;;;23.22;36.12
62237;BME280;69163;48.778;2.308;2023-07-20T06:34:59;100900.27;;;22.92;36.20
62237;BME280;69163;48.778;2.308;2023-07-20T06:37:24;100900.01;;;23.16;36.21
62237;BME280;69163;48.778;2.308;2023-07-20T06:39:49;100896.76;;;23.24;36.15
62237;BME280;69163;48.778;2.308;2023-07-20T06:42:15;100899.23;;;22.74;36.17
62237;BME280;69163;48.778;2.308;2023-07-20T06:44:40;100898.16;;;22.49;36.20
62237;BME280;69163;48.778;2.308;2023-07-20T06:47:05;100902.11;;;22.80;36.18
62237;BME280;69163;48.778;2.308;2023-07-20T06:49:30;100902.73;;;23.24;36.19
62237;BME280;69163;48.778;2.308;2023-07-20T06:51:55;100906.85;;;23.05;36.16
62237;BME280;69163;48.778;2.308;2023-07-20T06:54:20;100904.21;;;22.76;36.14
62237;BME280;69163;48.778;2.308;2023-07-20T06:56:46;100905.83;;;22.85;36.07
62237;BME280;69163;48.778;2.308;2023-07-20T06:59:11;100902.14;;;23.09;36.11
62237;BME280;69163;48.778;2.308;2023-07-20T07:01:36;100895.09;;;23.33;36.15
62237;BME280;69163;48.778;2.308;2023-07-20T07:04:01;100898.64;;;23.44;36.06
62237;BME280;69163;48.778;2.308;2023-07-20T07:06:26;100896.13;;;23.38;36.18
62237;BME280;69163;48.778;2.308;2023-07-20T07:08:52;100896.76;;;23.45;36.06
62237;BME280;69163;48.778;2.308;2023-07-20T07:11:17;100892.89;;;23.45;36.02
62237;BME280;69163;48.778;2.308;2023-07-20T07:13:43;100893.43;;;22.95;36.07
62237;BME280;69163;48.778;2.308;2023-07-20T07:16:08;100886.85;;;22.45;36.10
62237;BME280;69163;48.778;2.308;2023-07-20T07:18:33;100890.52;;;22.96;36.03
62237;BME280;69163;48.778;2.308;2023-07-20T07:20:58;100891.05;;;22.97;35.96
62237;BME280;69163;48.778;2.308;2023-07-20T07:23:23;100892.06;;;23.51;35.86
62237;BME280;69163;48.778;2.308;2023-07-20T07:25:48;100891.25;;;23.08;35.74
62237;BME280;69163;48.778;2.308;2023-07-20T07:28:14;100893.30;;;23.59;35.59
62237;BME280;69163;48.778;2.308;2023-07-20T07:30:39;100890.60;;;23.31;35.74
62237;BME280;69163;48.778;2.308;2023-07-20T07:33:04;100891.19;;;23.29;35.83
62237;BME280;69163;48.778;2.308;2023-07-20T07:35:29;100888.39;;;23.35;35.90
62237;BME280;69163;48.778;2.308;2023-07-20T07:37:54;100887.18;;;23.25;36.07
62237;BME280;69163;48.778;2.308;2023-07-20T07:40:20;100889.75;;;23.38;36.16
62237;BME280;69163;48.778;2.308;2023-07-20T07:42:45;100889.29;;;22.93;36.15
62237;BME280;69163;48.778;2.308;2023-07-20T07:45:11;100893.51;;;22.94;36.38
62237;BME280;69163;48.778;2.308;2023-07-20T07:47:36;100895.23;;;22.04;36.76
62237;BME280;69163;48.778;2.308;2023-07-20T07:50:01;100894.75;;;21.20;37.00
62237;BME280;69163;48.778;2.308;2023-07-20T07:52:26;100889.13;;;21.14;36.90
62237;BME280;69163;48.778;2.308;2023-07-20T07:54:52;100885.35;;;21.08;37.05
62237;BME280;69163;48.778;2.308;2023-07-20T07:57:16;100882.42;;;21.05;36.91
62237;BME280;69163;48.778;2.308;2023-07-20T07:59:42;100883.14;;;21.31;36.78
62237;BME280;69163;48.778;2.308;2023-07-20T08:02:07;100880.60;;;21.05;36.71
62237;BME280;69163;48.778;2.308;2023-07-20T08:04:32;100882.27;;;21.63;36.58
62237;BME280;69163;48.778;2.308;2023-07-20T08:06:58;100883.97;;;21.16;36.47
62237;BME280;69163;48.778;2.308;2023-07-20T08:09:23;100879.37;;;21.32;36.69
62237;BME280;69163;48.778;2.308;2023-07-20T08:11:48;100879.15;;;21.28;36.68
62237;BME280;69163;48.778;2.308;2023-07-20T08:14:14;100877.62;;;21.86;36.43
62237;BME280;69163;48.778;2.308;2023-07-20T08:16:40;100873.77;;;21.25;36.23
62237;BME280;69163;48.778;2.308;2023-07-20T08:19:04;100872.90;;;21.54;35.93
62237;BME280;69163;48.778;2.308;2023-07-20T08:21:29;100874.28;;;21.56;35.90
62237;BME280;69163;48.778;2.308;2023-07-20T08:23:55;100877.88;;;21.24;36.12
62237;BME280;69163;48.778;2.308;2023-07-20T08:26:20;100876.95;;;21.10;36.27
62237;BME280;69163;48.778;2.308;2023-07-20T08:28:45;100873.94;;;20.94;36.00
62237;BME280;69163;48.778;2.308;2023-07-20T08:31:10;100871.42;;;21.10;36.24
62237;BME280;69163;48.778;2.308;2023-07-20T08:33:35;100872.74;;;21.23;36.53
62237;BME280;69163;48.778;2.308;2023-07-20T08:36:01;100863.47;;;21.45;35.91
62237;BME280;69163;48.778;2.308;2023-07-20T08:38:26;100858.49;;;21.38;36.06
62237;BME280;69163;48.778;2.308;2023-07-20T08:40:52;100858.53;;;21.58;35.58
62237;BME280;69163;48.778;2.308;2023-07-20T08:43:16;100858.24;;;21.69;35.80
62237;BME280;69163;48.778;2.308;2023-07-20T08:45:42;100857.93;;;21.17;36.29
62237;BME280;69163;48.778;2.308;2023-07-20T08:48:07;100858.12;;;21.44;36.49
62237;BME280;69163;48.778;2.308;2023-07-20T08:50:33;100858.14;;;21.75;36.64
62237;BME280;69163;48.778;2.308;2023-07-20T08:52:58;100860.58;;;21.54;36.67
62237;BME280;69163;48.778;2.308;2023-07-20T08:55:23;100859.24;;;21.33;36.63
62237;BME280;69163;48.778;2.308;2023-07-20T08:57:50;100862.49;;;21.39;36.60
62237;BME280;69163;48.778;2.308;2023-07-20T09:00:14;100862.08;;;21.89;36.58
62237;BME280;69163;48.778;2.308;2023-07-20T09:02:39;100865.84;;;21.93;36.57
62237;BME280;69163;48.778;2.308;2023-07-20T09:05:03;100865.18;;;21.72;36.57
62237;BME280;69163;48.778;2.308;2023-07-20T09:07:29;100865.95;;;21.51;36.57
62237;BME280;69163;48.778;2.308;2023-07-20T09:09:57;100866.32;;;21.77;36.61
62237;BME280;69163;48.778;2.308;2023-07-20T09:12:19;100864.47;;;21.80;36.58
62237;BME280;69163;48.778;2.308;2023-07-20T09:14:44;100862.60;;;21.83;36.56
62237;BME280;69163;48.778;2.308;2023-07-20T09:17:13;100862.62;;;21.63;36.53
62237;BME280;69163;48.778;2.308;2023-07-20T09:19:35;100858.77;;;21.87;36.54
62237;BME280;69163;48.778;2.308;2023-07-20T09:22:00;100858.77;;;21.64;36.53
62237;BME280;69163;48.778;2.308;2023-07-20T09:24:29;100858.08;;;21.66;36.51
62237;BME280;69163;48.778;2.308;2023-07-20T09:26:50;100858.61;;;21.68;36.51
62237;BME280;69163;48.778;2.308;2023-07-20T09:29:18;100858.46;;;21.67;36.55
62237;BME280;69163;48.778;2.308;2023-07-20T09:31:41;100855.55;;;21.68;36.53
62237;BME280;69163;48.778;2.308;2023-07-20T09:34:06;100852.55;;;21.70;36.53
62237;BME280;69163;48.778;2.308;2023-07-20T09:36:33;100850.80;;;21.92;36.58
62237;BME280;69163;48.778;2.308;2023-07-20T09:38:56;100847.30;;;22.19;36.55
62237;BME280;69163;48.778;2.308;2023-07-20T09:41:22;100848.48;;;21.97;36.58
62237;BME280;69163;48.778;2.308;2023-07-20T09:43:47;100845.75;;;21.72;36.57
62237;BME280;69163;48.778;2.308;2023-07-20T09:46:12;100847.74;;;21.72;36.58
62237;BME280;69163;48.778;2.308;2023-07-20T09:48:38;100846.31;;;21.74;36.55
62237;BME280;69163;48.778;2.308;2023-07-20T09:51:04;100844.59;;;21.72;36.54
62237;BME280;69163;48.778;2.308;2023-07-20T09:53:28;100844.76;;;21.72;36.50
62237;BME280;69163;48.778;2.308;2023-07-20T09:55:54;100846.16;;;21.96;36.52
62237;BME280;69163;48.778;2.308;2023-07-20T09:58:18;100843.08;;;21.72;36.54
62237;BME280;69163;48.778;2.308;2023-07-20T10:00:44;100842.95;;;21.73;36.54
62237;BME280;69163;48.778;2.308;2023-07-20T10:03:10;100841.79;;;21.99;36.51
62237;BME280;69163;48.778;2.308;2023-07-20T10:05:35;100840.14;;;22.24;36.49
62237;BME280;69163;48.778;2.308;2023-07-20T10:07:59;100836.91;;;21.76;36.49
62237;BME280;69163;48.778;2.308;2023-07-20T10:10:25;100832.15;;;22.01;36.45
62237;BME280;69163;48.778;2.308;2023-07-20T10:12:50;100830.48;;;22.02;36.45
62237;BME280;69163;48.778;2.308;2023-07-20T10:15:20;100825.53;;;21.98;36.48
62237;BME280;69163;48.778;2.308;2023-07-20T10:17:48;100823.40;;;22.21;36.48
62237;BME280;69163;48.778;2.308;2023-07-20T10:20:06;100826.71;;;21.77;36.42
62237;BME280;69163;48.778;2.308;2023-07-20T10:22:35;100823.83;;;21.77;36.36
62237;BME280;69163;48.778;2.308;2023-07-20T10:24:56;100822.47;;;21.80;36.30
62237;BME280;69163;48.778;2.308;2023-07-20T10:27:21;100817.21;;;21.80;36.32
62237;BME280;69163;48.778;2.308;2023-07-20T10:29:47;100809.93;;;21.82;36.26
62237;BME280;69163;48.778;2.308;2023-07-20T10:32:11;100805.98;;;21.59;36.29
62237;BME280;69163;48.778;2.308;2023-07-20T10:34:36;100802.98;;;21.61;36.26
62237;BME280;69163;48.778;2.308;2023-07-20T10:37:02;100800.41;;;22.08;36.15
62237;BME280;69163;48.778;2.308;2023-07-20T10:39:29;100796.03;;;21.87;36.22
62237;BME280;69163;48.778;2.308;2023-07-20T10:42:00;100794.31;;;21.85;36.23
62237;BME280;69163;48.778;2.308;2023-07-20T10:44:21;100796.10;;;21.84;36.20
62237;BME280;69163;48.778;2.308;2023-07-20T10:46:44;100790.27;;;21.87;36.15
62237;BME280;69163;48.778;2.308;2023-07-20T10:49:15;100792.27;;;21.87;36.12
62237;BME280;69163;48.778;2.308;2023-07-20T10:51:40;100790.59;;;21.87;36.07
62237;BME280;69163;48.778;2.308;2023-07-20T10:53:59;100787.08;;;21.87;36.04
62237;BME280;69163;48.778;2.308;2023-07-20T10:56:26;100783.03;;;21.61;36.12
62237;BME280;69163;48.778;2.308;2023-07-20T10:58:49;100782.95;;;21.88;36.10
62237;BME280;69163;48.778;2.308;2023-07-20T11:01:16;100785.54;;;22.38;36.09
62237;BME280;69163;48.778;2.308;2023-07-20T11:03:40;100784.11;;;22.12;36.13
62237;BME280;69163;48.778;2.308;2023-07-20T11:08:41;100783.01;;;21.92;36.08
62237;BME280;69163;48.778;2.308;2023-07-20T11:13:22;100776.93;;;22.09;36.10
62237;BME280;69163;48.778;2.308;2023-07-20T11:15:46;100776.37;;;21.88;36.06
62237;BME280;69163;48.778;2.308;2023-07-20T11:18:12;100783.28;;;21.63;35.99
62237;BME280;69163;48.778;2.308;2023-07-20T11:20:36;100779.95;;;21.85;35.96
62237;BME280;69163;48.778;2.308;2023-07-20T11:23:01;100780.40;;;21.89;35.90
62237;BME280;69163;48.778;2.308;2023-07-20T11:25:36;100780.60;;;21.65;35.94
62237;BME280;69163;48.778;2.308;2023-07-20T11:27:52;100782.15;;;21.87;35.97
62237;BME280;69163;48.778;2.308;2023-07-20T11:30:17;100780.33;;;21.91;35.90
62237;BME280;69163;48.778;2.308;2023-07-20T11:32:47;100783.01;;;21.90;35.93
62237;BME280;69163;48.778;2.308;2023-07-20T11:35:12;100779.90;;;21.89;35.88
62237;BME280;69163;48.778;2.308;2023-07-20T11:37:33;100776.58;;;21.88;35.90
62237;BME280;69163;48.778;2.308;2023-07-20T11:39:58;100770.84;;;21.92;35.90
62237;BME280;69163;48.778;2.308;2023-07-20T11:42:23;100764.81;;;21.94;35.80
62237;BME280;69163;48.778;2.308;2023-07-20T11:44:52;100763.96;;;21.95;35.74
62237;BME280;69163;48.778;2.308;2023-07-20T11:47:14;100765.73;;;21.93;35.74
62237;BME280;69163;48.778;2.308;2023-07-20T11:49:40;100760.45;;;21.92;35.73
62237;BME280;69163;48.778;2.308;2023-07-20T11:52:05;100755.75;;;21.94;35.69
62237;BME280;69163;48.778;2.308;2023-07-20T11:54:29;100753.59;;;21.93;35.70
62237;BME280;69163;48.778;2.308;2023-07-20T11:56:54;100750.00;;;21.97;35.65
62237;BME280;69163;48.778;2.308;2023-07-20T11:59:19;100752.64;;;21.99;35.64
62237;BME280;69163;48.778;2.308;2023-07-20T12:01:45;100750.44;;;22.00;35.65
62237;BME280;69163;48.778;2.308;2023-07-20T12:04:10;100746.54;;;22.03;35.60
62237;BME280;69163;48.778;2.308;2023-07-20T12:06:35;100742.56;;;22.02;35.61
62237;BME280;69163;48.778;2.308;2023-07-20T12:09:01;100746.59;;;22.01;35.60
62237;BME280;69163;48.778;2.308;2023-07-20T12:11:33;100742.36;;;22.02;35.57
62237;BME280;69163;48.778;2.308;2023-07-20T12:13:51;100739.41;;;21.99;35.55
62237;BME280;69163;48.778;2.308;2023-07-20T12:16:17;100738.58;;;22.00;35.54
62237;BME280;69163;48.778;2.308;2023-07-20T12:18:42;100729.48;;;22.00;35.52
62237;BME280;69163;48.778;2.308;2023-07-20T12:21:07;100725.70;;;22.04;35.48
62237;BME280;69163;48.778;2.308;2023-07-20T12:23:36;100714.23;;;22.52;35.49
62237;BME280;69163;48.778;2.308;2023-07-20T12:25:57;100708.65;;;22.03;35.48
62237;BME280;69163;48.778;2.308;2023-07-20T12:28:22;100712.22;;;22.02;35.49
62237;BME280;69163;48.778;2.308;2023-07-20T12:30:47;100712.03;;;22.01;35.51
62237;BME280;69163;48.778;2.308;2023-07-20T12:33:13;100712.58;;;22.05;35.45
62237;BME280;69163;48.778;2.308;2023-07-20T12:35:38;100707.03;;;22.04;35.40
62237;BME280;69163;48.778;2.308;2023-07-20T12:38:03;100705.58;;;22.09;35.27
62237;BME280;69163;48.778;2.308;2023-07-20T12:40:28;100699.64;;;22.08;35.26
62237;BME280;69163;48.778;2.308;2023-07-20T12:42:54;100697.43;;;22.00;35.31
62237;BME280;69163;48.778;2.308;2023-07-20T12:45:19;100696.30;;;21.79;35.24